createdAt,value
2022-12-03T00:00:55.457Z,1011.06
2022-12-03T00:01:55.465Z,1011.05
2022-12-03T00:02:55.542Z,1011.04
2022-12-03T00:03:55.587Z,1011.05
2022-12-03T00:04:55.686Z,1011.03
2022-12-03T00:05:55.418Z,1011.01
2022-12-03T00:06:55.415Z,1011.04
2022-12-03T00:07:55.513Z,1011.03
2022-12-03T00:08:55.371Z,1011.02
2022-12-03T00:09:55.389Z,1011.01
2022-12-03T00:10:55.374Z,1011.03
2022-12-03T00:11:55.363Z,1011.01
2022-12-03T00:12:55.362Z,1010.99
2022-12-03T00:13:55.347Z,1010.99
2022-12-03T00:14:55.690Z,1010.98
2022-12-03T00:15:56.148Z,1011.02
2022-12-03T00:16:55.307Z,1010.99
2022-12-03T00:17:55.286Z,1011.01
2022-12-03T00:18:55.284Z,1011.00
2022-12-03T00:19:55.287Z,1011.00
2022-12-03T00:20:55.242Z,1010.95
2022-12-03T00:21:55.264Z,1010.95
2022-12-03T00:22:55.231Z,1010.95
2022-12-03T00:23:55.232Z,1010.93
2022-12-03T00:24:55.525Z,1010.92
2022-12-03T00:25:55.208Z,1010.93
2022-12-03T00:26:55.205Z,1010.93
2022-12-03T00:27:55.193Z,1010.93
2022-12-03T00:28:55.163Z,1010.91
2022-12-03T00:29:55.168Z,1010.91
2022-12-03T00:30:55.195Z,1010.95
2022-12-03T00:31:55.171Z,1010.91
2022-12-03T00:32:55.145Z,1010.89
2022-12-03T00:33:55.141Z,1010.85
2022-12-03T00:34:55.339Z,1010.85
2022-12-03T00:35:55.127Z,1010.85
2022-12-03T00:36:55.088Z,1010.86
2022-12-03T00:37:55.117Z,1010.86
2022-12-03T00:38:55.089Z,1010.85
2022-12-03T00:39:55.085Z,1010.88
2022-12-03T00:40:55.057Z,1010.89
2022-12-03T00:41:55.064Z,1010.87
2022-12-03T00:42:55.032Z,1010.92
2022-12-03T00:43:55.046Z,1010.90
2022-12-03T00:44:55.462Z,1010.87
2022-12-03T00:45:56.006Z,1010.88
2022-12-03T00:46:55.138Z,1010.83
2022-12-03T00:47:54.990Z,1010.87
2022-12-03T00:48:54.979Z,1010.86
2022-12-03T00:49:54.992Z,1010.89
2022-12-03T00:50:54.959Z,1010.90
2022-12-03T00:51:54.952Z,1010.93
2022-12-03T00:52:54.943Z,1010.87
2022-12-03T00:53:54.961Z,1010.93
2022-12-03T00:54:55.248Z,1010.89
2022-12-03T00:55:54.935Z,1010.90
2022-12-03T00:56:54.899Z,1010.88
2022-12-03T00:57:54.897Z,1010.88
2022-12-03T00:58:54.901Z,1010.89
2022-12-03T00:59:54.978Z,1010.91
2022-12-03T01:00:54.852Z,1010.90
2022-12-03T01:01:55.036Z,1010.90
2022-12-03T01:02:54.832Z,1010.90
2022-12-03T01:03:54.840Z,1010.89
2022-12-03T01:04:54.982Z,1010.90
2022-12-03T01:05:54.823Z,1010.93
2022-12-03T01:06:54.787Z,1010.94
2022-12-03T01:07:54.862Z,1010.94
2022-12-03T01:08:54.781Z,1010.92
2022-12-03T01:09:54.779Z,1011.00
2022-12-03T01:10:54.773Z,1010.97
2022-12-03T01:11:54.752Z,1010.96
2022-12-03T01:12:54.723Z,1010.95
2022-12-03T01:13:54.738Z,1010.98
2022-12-03T01:14:55.063Z,1010.96
2022-12-03T01:15:54.774Z,1010.96
2022-12-03T01:16:54.685Z,1010.99
2022-12-03T01:17:54.682Z,1010.96
2022-12-03T01:18:54.670Z,1011.03
2022-12-03T01:19:54.699Z,1011.00
2022-12-03T01:20:54.637Z,1011.01
2022-12-03T01:21:54.646Z,1011.02
2022-12-03T01:22:54.634Z,1010.97
2022-12-03T01:23:54.622Z,1011.00
2022-12-03T01:24:54.861Z,1011.01
2022-12-03T01:25:54.625Z,1011.02
2022-12-03T01:26:54.586Z,1011.03
2022-12-03T01:27:54.590Z,1011.01
2022-12-03T01:28:54.570Z,1011.00
2022-12-03T01:29:54.576Z,1010.97
2022-12-03T01:30:54.625Z,1011.01
2022-12-03T01:31:54.539Z,1010.97
2022-12-03T01:32:54.529Z,1011.00
2022-12-03T01:33:54.518Z,1011.00
2022-12-03T01:34:54.895Z,1010.99
2022-12-03T01:35:54.512Z,1010.93
2022-12-03T01:36:54.491Z,1010.94
2022-12-03T01:37:54.476Z,1010.94
2022-12-03T01:38:54.462Z,1010.93
2022-12-03T01:39:54.467Z,1010.95
2022-12-03T01:40:54.440Z,1010.92
2022-12-03T01:41:54.446Z,1010.90
2022-12-03T01:42:54.469Z,1010.92
2022-12-03T01:43:54.424Z,1010.92
2022-12-03T01:44:54.832Z,1010.93
2022-12-03T01:45:54.413Z,1010.93
2022-12-03T01:46:54.494Z,1010.92
2022-12-03T01:47:54.383Z,1010.91
2022-12-03T01:48:54.377Z,1010.93
2022-12-03T01:49:54.391Z,1010.93
2022-12-03T01:50:54.345Z,1010.92
2022-12-03T01:51:54.365Z,1010.93
2022-12-03T01:52:54.333Z,1010.92
2022-12-03T01:53:54.318Z,1010.88
2022-12-03T01:54:54.628Z,1010.89
2022-12-03T01:55:54.297Z,1010.92
2022-12-03T01:56:54.282Z,1010.90
2022-12-03T01:57:54.288Z,1011.00
2022-12-03T01:58:54.290Z,1010.92
2022-12-03T01:59:54.252Z,1010.92
2022-12-03T02:00:54.295Z,1010.94
2022-12-03T02:01:54.282Z,1010.92
2022-12-03T02:02:54.242Z,1011.00
2022-12-03T02:03:54.283Z,1010.91
2022-12-03T02:04:54.627Z,1010.93
2022-12-03T02:05:54.190Z,1010.94
2022-12-03T02:06:54.205Z,1010.91
2022-12-03T02:07:54.289Z,1010.96
2022-12-03T02:08:54.192Z,1010.92
2022-12-03T02:09:54.288Z,1010.93
2022-12-03T02:10:54.144Z,1010.90
2022-12-03T02:11:54.167Z,1010.96
2022-12-03T02:12:54.162Z,1010.90
2022-12-03T02:13:54.116Z,1010.93
2022-12-03T02:14:54.416Z,1010.95
2022-12-03T02:15:54.155Z,1010.93
2022-12-03T02:16:54.088Z,1010.92
2022-12-03T02:17:54.073Z,1010.93
2022-12-03T02:18:54.076Z,1010.91
2022-12-03T02:19:54.071Z,1010.91
2022-12-03T02:20:54.034Z,1010.90
2022-12-03T02:21:54.045Z,1010.90
2022-12-03T02:22:54.012Z,1010.90
2022-12-03T02:23:54.047Z,1010.90
2022-12-03T02:24:54.245Z,1010.90
2022-12-03T02:25:54.004Z,1010.92
2022-12-03T02:26:53.981Z,1010.89
2022-12-03T02:27:53.997Z,1010.91
2022-12-03T02:28:53.956Z,1010.90
2022-12-03T02:29:53.967Z,1010.91
2022-12-03T02:30:53.936Z,1010.91
2022-12-03T02:31:53.993Z,1010.90
2022-12-03T02:32:53.929Z,1010.90
2022-12-03T02:33:53.915Z,1010.88
2022-12-03T02:34:54.172Z,1010.89
2022-12-03T02:35:55.289Z,1010.87
2022-12-03T02:36:53.882Z,1010.89
2022-12-03T02:37:53.871Z,1010.86
2022-12-03T02:38:53.860Z,1010.86
2022-12-03T02:39:53.864Z,1010.83
2022-12-03T02:40:53.838Z,1010.84
2022-12-03T02:41:53.830Z,1010.83
2022-12-03T02:42:53.847Z,1010.82
2022-12-03T02:43:53.823Z,1010.81
2022-12-03T02:44:54.015Z,1010.85
2022-12-03T02:45:53.806Z,1010.83
2022-12-03T02:46:53.805Z,1010.84
2022-12-03T02:47:53.774Z,1010.83
2022-12-03T02:48:53.939Z,1010.82
2022-12-03T02:49:53.762Z,1010.90
2022-12-03T02:50:53.767Z,1010.80
2022-12-03T02:51:53.736Z,1010.83
2022-12-03T02:52:53.718Z,1010.84
2022-12-03T02:53:53.715Z,1010.81
2022-12-03T02:54:53.919Z,1010.86
2022-12-03T02:55:53.701Z,1010.83
2022-12-03T02:56:53.695Z,1010.82
2022-12-03T02:57:53.669Z,1010.83
2022-12-03T02:58:53.683Z,1010.80
2022-12-03T02:59:53.669Z,1010.81
2022-12-03T03:00:53.685Z,1010.80
2022-12-03T03:01:53.700Z,1010.84
2022-12-03T03:02:53.623Z,1010.79
2022-12-03T03:03:53.620Z,1010.76
2022-12-03T03:04:53.917Z,1010.76
2022-12-03T03:05:53.605Z,1010.75
2022-12-03T03:06:53.576Z,1010.74
2022-12-03T03:07:53.640Z,1010.74
2022-12-03T03:08:53.565Z,1010.73
2022-12-03T03:09:53.556Z,1010.72
2022-12-03T03:10:53.597Z,1010.73
2022-12-03T03:11:53.553Z,1010.75
2022-12-03T03:12:53.516Z,1010.71
2022-12-03T03:13:53.527Z,1010.78
2022-12-03T03:14:53.912Z,1010.73
2022-12-03T03:15:53.585Z,1010.70
2022-12-03T03:16:53.570Z,1010.70
2022-12-03T03:17:53.468Z,1010.71
2022-12-03T03:18:53.459Z,1010.72
2022-12-03T03:19:53.492Z,1010.73
2022-12-03T03:20:53.426Z,1010.70
2022-12-03T03:21:53.455Z,1010.68
2022-12-03T03:22:53.437Z,1010.69
2022-12-03T03:23:53.405Z,1010.71
2022-12-03T03:24:53.703Z,1010.67
2022-12-03T03:25:53.401Z,1010.63
2022-12-03T03:26:53.387Z,1010.65
2022-12-03T03:27:53.388Z,1010.65
2022-12-03T03:28:53.366Z,1010.66
2022-12-03T03:29:53.351Z,1010.64
2022-12-03T03:30:53.343Z,1010.67
2022-12-03T03:31:53.392Z,1010.64
2022-12-03T03:32:53.323Z,1010.61
2022-12-03T03:33:53.302Z,1010.61
2022-12-03T03:34:53.674Z,1010.62
2022-12-03T03:35:53.300Z,1010.62
2022-12-03T03:36:53.291Z,1010.61
2022-12-03T03:37:53.292Z,1010.62
2022-12-03T03:38:53.270Z,1010.63
2022-12-03T03:39:53.251Z,1010.62
2022-12-03T03:40:53.282Z,1010.64
2022-12-03T03:41:53.235Z,1010.62
2022-12-03T03:42:53.240Z,1010.60
2022-12-03T03:43:53.223Z,1010.57
2022-12-03T03:44:53.512Z,1010.54
2022-12-03T03:45:53.226Z,1010.53
2022-12-03T03:46:53.216Z,1010.54
2022-12-03T03:47:53.204Z,1010.51
2022-12-03T03:48:53.152Z,1010.49
2022-12-03T03:49:53.168Z,1010.48
2022-12-03T03:50:53.146Z,1010.48
2022-12-03T03:51:53.148Z,1010.48
2022-12-03T03:52:53.128Z,1010.45
2022-12-03T03:53:53.107Z,1010.46
2022-12-03T03:54:53.319Z,1010.44
2022-12-03T03:55:53.098Z,1010.43
2022-12-03T03:56:53.087Z,1010.42
2022-12-03T03:57:53.080Z,1010.40
2022-12-03T03:58:53.084Z,1010.41
2022-12-03T03:59:53.059Z,1010.40
2022-12-03T04:00:53.058Z,1010.39
2022-12-03T04:01:53.035Z,1010.38
2022-12-03T04:02:53.015Z,1010.40
2022-12-03T04:03:53.092Z,1010.41
2022-12-03T04:04:53.374Z,1010.41
2022-12-03T04:05:52.987Z,1010.40
2022-12-03T04:06:52.987Z,1010.41
2022-12-03T04:07:53.055Z,1010.47
2022-12-03T04:08:52.959Z,1010.43
2022-12-03T04:09:52.972Z,1010.40
2022-12-03T04:10:52.939Z,1010.39
2022-12-03T04:11:52.917Z,1010.39
2022-12-03T04:12:52.924Z,1010.37
2022-12-03T04:13:52.913Z,1010.37
2022-12-03T04:14:53.187Z,1010.32
2022-12-03T04:15:52.888Z,1010.36
2022-12-03T04:16:52.955Z,1010.36
2022-12-03T04:17:52.871Z,1010.32
2022-12-03T04:18:52.854Z,1010.32
2022-12-03T04:19:52.858Z,1010.31
2022-12-03T04:20:52.861Z,1010.30
2022-12-03T04:21:52.835Z,1010.29
2022-12-03T04:22:52.852Z,1010.34
2022-12-03T04:23:52.797Z,1010.31
2022-12-03T04:24:53.185Z,1010.31
2022-12-03T04:25:52.813Z,1010.34
2022-12-03T04:26:52.794Z,1010.34
2022-12-03T04:27:52.769Z,1010.35
2022-12-03T04:28:52.766Z,1010.34
2022-12-03T04:29:52.732Z,1010.32
2022-12-03T04:30:52.806Z,1010.34
2022-12-03T04:31:52.756Z,1010.36
2022-12-03T04:32:52.712Z,1010.34
2022-12-03T04:33:52.698Z,1010.34
2022-12-03T04:34:53.025Z,1010.36
2022-12-03T04:35:52.740Z,1010.37
2022-12-03T04:36:52.774Z,1010.40
2022-12-03T04:37:52.677Z,1010.34
2022-12-03T07:35:21.367Z,1010.11
2022-12-03T07:36:22.337Z,1010.10
2022-12-03T07:37:23.434Z,1010.11
2022-12-03T07:38:22.310Z,1010.12
2022-12-03T07:39:22.278Z,1010.14
2022-12-03T07:40:22.292Z,1010.15
2022-12-03T07:41:22.257Z,1010.11
2022-12-03T07:42:22.265Z,1010.12
2022-12-03T07:43:22.228Z,1010.09
2022-12-03T07:44:22.234Z,1010.10
2022-12-03T07:45:22.277Z,1010.10
2022-12-03T07:46:22.300Z,1010.10
2022-12-03T07:47:22.194Z,1010.09
2022-12-03T07:48:22.188Z,1010.15
2022-12-03T07:49:22.198Z,1010.15
2022-12-03T07:50:22.164Z,1010.10
2022-12-03T07:51:24.189Z,1010.10
2022-12-03T07:52:22.126Z,1010.10
2022-12-03T07:53:22.128Z,1010.10
2022-12-03T07:54:22.143Z,1010.10
2022-12-03T07:55:22.126Z,1010.13
2022-12-03T07:56:22.114Z,1010.13
2022-12-03T07:57:22.114Z,1010.13
2022-12-03T07:58:22.135Z,1010.14
2022-12-03T07:59:25.426Z,1010.14
2022-12-03T08:00:22.067Z,1010.13
2022-12-03T08:01:22.133Z,1010.12
2022-12-03T08:02:22.233Z,1010.13
2022-12-03T08:03:22.022Z,1010.12
2022-12-03T08:04:22.001Z,1010.12
2022-12-03T08:05:22.038Z,1010.13
2022-12-03T08:06:21.998Z,1010.12
2022-12-03T08:07:21.980Z,1010.13
2022-12-03T08:08:21.982Z,1010.10
2022-12-03T08:09:21.959Z,1010.10
2022-12-03T08:10:21.944Z,1010.10
2022-12-03T08:11:21.990Z,1010.10
2022-12-03T08:12:21.944Z,1010.13
2022-12-03T08:13:21.936Z,1010.15
2022-12-03T08:14:21.919Z,1010.14
2022-12-03T08:15:21.962Z,1010.12
2022-12-03T08:16:21.981Z,1010.13
2022-12-03T08:17:21.927Z,1010.12
2022-12-03T08:18:21.871Z,1010.11
2022-12-03T08:19:21.883Z,1010.12
2022-12-03T08:20:21.863Z,1010.17
2022-12-03T08:21:21.843Z,1010.17
2022-12-03T08:22:21.839Z,1010.11
2022-12-03T08:23:21.826Z,1010.15
2022-12-03T08:24:21.807Z,1010.11
2022-12-03T08:25:21.813Z,1010.10
2022-12-03T08:26:21.799Z,1010.12
2022-12-03T08:27:21.804Z,1010.10
2022-12-03T08:28:21.762Z,1010.11
2022-12-03T08:29:21.772Z,1010.12
2022-12-03T08:30:21.748Z,1010.11
2022-12-03T08:31:21.760Z,1010.14
2022-12-03T08:32:21.816Z,1010.15
2022-12-03T08:33:21.724Z,1010.16
2022-12-03T08:34:21.727Z,1010.16
2022-12-03T08:35:21.715Z,1010.13
2022-12-03T08:36:21.688Z,1010.15
2022-12-03T08:37:21.699Z,1010.13
2022-12-03T08:38:21.693Z,1010.15
2022-12-03T08:39:21.664Z,1010.18
2022-12-03T08:40:21.635Z,1010.19
2022-12-03T08:41:21.681Z,1010.19
2022-12-03T08:42:21.639Z,1010.19
2022-12-03T08:43:21.628Z,1010.20
2022-12-03T08:44:21.681Z,1010.22
2022-12-03T08:45:21.618Z,1010.18
2022-12-03T08:46:21.779Z,1010.22
2022-12-03T08:47:21.593Z,1010.22
2022-12-03T08:48:21.576Z,1010.18
2022-12-03T08:49:21.584Z,1010.21
2022-12-03T08:50:21.563Z,1010.18
2022-12-03T08:51:21.602Z,1010.18
2022-12-03T08:52:21.522Z,1010.17
2022-12-03T08:53:21.534Z,1010.20
2022-12-03T08:54:21.524Z,1010.19
2022-12-03T08:55:21.514Z,1010.22
2022-12-03T08:56:21.473Z,1010.19
2022-12-03T08:57:21.583Z,1010.16
2022-12-03T08:58:21.467Z,1010.16
2022-12-03T08:59:21.474Z,1010.17
2022-12-03T09:00:21.462Z,1010.18
2022-12-03T09:01:21.557Z,1010.17
2022-12-03T09:02:21.430Z,1010.15
2022-12-03T09:03:21.416Z,1010.14
2022-12-03T09:04:21.493Z,1010.14
2022-12-03T09:05:21.399Z,1010.15
2022-12-03T09:06:21.396Z,1010.18
2022-12-03T09:07:21.606Z,1010.16
2022-12-03T09:08:21.475Z,1010.15
2022-12-03T09:09:21.381Z,1010.17
2022-12-03T09:10:21.386Z,1010.16
2022-12-03T09:11:21.348Z,1010.17
2022-12-03T09:12:21.311Z,1010.18
2022-12-03T09:13:21.324Z,1010.18
2022-12-03T09:14:21.324Z,1010.16
2022-12-03T09:15:21.311Z,1010.15
2022-12-03T09:16:21.380Z,1010.13
2022-12-03T09:17:21.291Z,1010.11
2022-12-03T09:18:21.285Z,1010.10
2022-12-03T09:19:21.321Z,1010.10
2022-12-03T09:20:21.240Z,1010.08
2022-12-03T09:21:21.283Z,1010.10
2022-12-03T09:22:21.220Z,1010.10
2022-12-03T09:23:21.221Z,1010.11
2022-12-03T09:24:21.219Z,1010.10
2022-12-03T09:25:21.229Z,1010.12
2022-12-03T09:26:21.182Z,1010.11
2022-12-03T09:27:21.190Z,1010.11
2022-12-03T09:28:21.163Z,1010.10
2022-12-03T09:29:21.181Z,1010.11
2022-12-03T09:30:21.133Z,1010.11
2022-12-03T09:31:21.163Z,1010.06
2022-12-03T09:32:21.244Z,1010.07
2022-12-03T09:33:21.139Z,1010.08
2022-12-03T09:34:21.121Z,1010.07
2022-12-03T09:35:21.113Z,1010.08
2022-12-03T09:36:21.100Z,1010.09
2022-12-03T09:37:21.065Z,1010.09
2022-12-03T09:38:21.066Z,1010.10
2022-12-03T09:39:21.062Z,1010.07
2022-12-03T09:40:21.050Z,1010.07
2022-12-03T09:41:21.043Z,1010.07
2022-12-03T09:42:21.024Z,1010.07
2022-12-03T09:43:21.011Z,1010.07
2022-12-03T09:44:20.985Z,1010.09
2022-12-03T09:45:20.994Z,1010.08
2022-12-03T09:46:21.133Z,1010.06
2022-12-03T09:47:20.981Z,1010.06
2022-12-03T09:48:20.971Z,1010.08
2022-12-03T09:49:20.952Z,1010.06
2022-12-03T09:50:20.940Z,1010.08
2022-12-03T09:51:20.946Z,1010.07
2022-12-03T09:52:20.924Z,1010.06
2022-12-03T09:53:20.907Z,1010.06
2022-12-03T09:54:20.923Z,1010.06
2022-12-03T09:55:20.898Z,1010.07
2022-12-03T09:56:20.871Z,1010.08
2022-12-03T09:57:20.930Z,1010.06
2022-12-03T09:58:20.858Z,1010.09
2022-12-03T09:59:20.855Z,1010.07
2022-12-03T10:00:20.903Z,1010.03
2022-12-03T10:01:20.939Z,1010.01
2022-12-03T10:02:20.821Z,1010.02
2022-12-03T10:03:24.085Z,1009.98
2022-12-03T10:04:20.895Z,1009.96
2022-12-03T10:05:20.803Z,1009.93
2022-12-03T10:06:20.784Z,1009.93
2022-12-03T10:07:20.792Z,1009.92
2022-12-03T10:08:20.871Z,1009.90
2022-12-03T10:09:20.792Z,1009.89
2022-12-03T10:10:20.748Z,1009.89
2022-12-03T10:11:20.742Z,1009.91
2022-12-03T10:12:20.813Z,1009.87
2022-12-03T10:13:25.464Z,1009.88
2022-12-03T10:14:20.741Z,1009.86
2022-12-03T10:15:20.705Z,1009.85
2022-12-03T10:16:20.741Z,1009.81
2022-12-03T10:17:20.686Z,1009.82
2022-12-03T10:18:20.677Z,1009.80
2022-12-03T10:19:20.655Z,1009.79
2022-12-03T10:20:20.623Z,1009.78
2022-12-03T10:21:20.645Z,1009.78
2022-12-03T10:22:20.624Z,1009.77
2022-12-03T10:23:20.623Z,1009.75
2022-12-03T10:24:20.599Z,1009.75
2022-12-03T10:25:20.585Z,1009.73
2022-12-03T10:26:20.596Z,1009.76
2022-12-03T10:27:20.562Z,1009.75
2022-12-03T10:28:20.584Z,1009.74
2022-12-03T10:29:20.559Z,1009.71
2022-12-03T10:30:20.549Z,1009.69
2022-12-03T10:31:20.650Z,1009.70
2022-12-03T10:32:20.539Z,1009.68
2022-12-03T10:33:20.502Z,1009.69
2022-12-03T10:34:20.513Z,1009.68
2022-12-03T10:35:20.489Z,1009.66
2022-12-03T10:36:20.482Z,1009.64
2022-12-03T10:37:20.458Z,1009.65
2022-12-03T10:38:20.471Z,1009.62
2022-12-03T10:39:20.460Z,1009.61
2022-12-03T10:40:20.486Z,1009.59
2022-12-03T10:41:20.428Z,1009.59
2022-12-03T10:42:20.449Z,1009.59
2022-12-03T10:43:20.400Z,1009.57
2022-12-03T10:44:20.415Z,1009.57
2022-12-03T10:45:20.396Z,1009.57
2022-12-03T10:46:20.541Z,1009.56
2022-12-03T10:47:20.467Z,1009.56
2022-12-03T10:48:20.356Z,1009.57
2022-12-03T10:49:20.334Z,1009.57
2022-12-03T10:50:20.364Z,1009.57
2022-12-03T10:51:20.324Z,1009.55
2022-12-03T10:52:25.476Z,1009.54
2022-12-03T10:53:20.310Z,1009.54
2022-12-03T10:54:20.293Z,1009.49
2022-12-03T10:55:20.316Z,1009.50
2022-12-03T10:56:20.330Z,1009.55
2022-12-03T10:57:20.259Z,1009.48
2022-12-03T10:58:20.253Z,1009.50
2022-12-03T10:59:20.286Z,1009.49
2022-12-03T11:00:20.263Z,1009.45
2022-12-03T11:01:20.329Z,1009.42
2022-12-03T11:02:20.238Z,1009.40
2022-12-03T11:03:20.258Z,1009.38
2022-12-03T11:04:20.204Z,1009.36
2022-12-03T11:05:20.211Z,1009.35
2022-12-03T11:06:20.175Z,1009.33
2022-12-03T11:07:20.159Z,1009.33
2022-12-03T11:08:20.231Z,1009.33
2022-12-03T11:09:20.147Z,1009.35
2022-12-03T11:10:20.154Z,1009.34
2022-12-03T11:11:20.163Z,1009.35
2022-12-03T11:12:20.143Z,1009.34
2022-12-03T11:13:20.117Z,1009.33
2022-12-03T11:14:23.046Z,1009.33
2022-12-03T11:15:20.106Z,1009.32
2022-12-03T11:16:20.150Z,1009.32
2022-12-03T11:17:20.103Z,1009.26
2022-12-03T11:18:20.062Z,1009.24
2022-12-03T11:19:20.203Z,1009.24
2022-12-03T11:20:22.939Z,1009.22
2022-12-03T11:21:20.024Z,1009.20
2022-12-03T11:22:20.013Z,1009.16
2022-12-03T11:23:20.049Z,1009.19
2022-12-03T11:24:20.055Z,1009.18
2022-12-03T11:25:19.984Z,1009.17
2022-12-03T11:26:20.137Z,1009.15
2022-12-03T11:27:19.964Z,1009.15
2022-12-03T11:28:19.965Z,1009.17
2022-12-03T11:29:19.944Z,1009.16
2022-12-03T11:30:19.949Z,1009.11
2022-12-03T11:31:19.994Z,1009.13
2022-12-03T11:32:19.917Z,1009.12
2022-12-03T11:33:19.910Z,1009.12
2022-12-03T11:34:19.922Z,1009.09
2022-12-03T11:35:19.880Z,1009.07
2022-12-03T11:36:36.331Z,1009.07
2022-12-03T11:37:19.853Z,1009.05
2022-12-03T11:38:19.849Z,1009.06
2022-12-03T11:39:19.868Z,1009.04
2022-12-03T11:40:19.863Z,1009.02
2022-12-03T11:41:19.834Z,1008.99
2022-12-03T11:42:19.814Z,1008.99
2022-12-03T11:43:19.801Z,1008.95
2022-12-03T11:44:19.794Z,1008.94
2022-12-03T11:45:19.817Z,1008.92
2022-12-03T11:46:19.892Z,1008.93
2022-12-03T11:47:19.770Z,1008.93
2022-12-03T11:48:19.765Z,1008.93
2022-12-03T11:49:19.750Z,1008.92
2022-12-03T11:50:19.729Z,1008.92
2022-12-03T11:51:19.758Z,1008.94
2022-12-03T11:52:19.749Z,1008.94
2022-12-03T11:53:19.732Z,1008.97
2022-12-03T11:54:19.709Z,1008.97
2022-12-03T11:55:19.686Z,1008.99
2022-12-03T11:56:19.676Z,1008.97
2022-12-03T11:57:19.664Z,1008.95
2022-12-03T11:58:19.674Z,1008.95
2022-12-03T11:59:19.646Z,1008.96
2022-12-03T12:00:19.668Z,1008.95
2022-12-03T12:01:19.619Z,1008.93
2022-12-03T12:02:19.611Z,1008.93
2022-12-03T12:03:19.726Z,1008.90
2022-12-03T12:04:19.696Z,1008.89
2022-12-03T12:05:19.586Z,1008.90
2022-12-03T12:06:19.613Z,1008.87
2022-12-03T12:07:19.573Z,1008.87
2022-12-03T12:08:19.689Z,1008.92
2022-12-03T12:09:19.528Z,1008.88
2022-12-03T12:10:19.530Z,1008.92
2022-12-03T12:11:19.549Z,1008.87
2022-12-03T12:12:19.519Z,1008.83
2022-12-03T12:13:19.523Z,1008.83
2022-12-03T12:14:19.498Z,1008.84
2022-12-03T12:15:19.480Z,1008.80
2022-12-03T12:16:19.526Z,1008.79
2022-12-03T12:17:19.470Z,1008.80
2022-12-03T12:18:19.484Z,1008.77
2022-12-03T12:19:19.451Z,1008.75
2022-12-03T12:20:19.433Z,1008.74
2022-12-03T12:21:19.463Z,1008.75
2022-12-03T12:22:19.449Z,1008.73
2022-12-03T12:23:19.398Z,1008.72
2022-12-03T12:24:19.415Z,1008.72
2022-12-03T12:25:19.375Z,1008.74
2022-12-03T12:26:19.367Z,1008.67
2022-12-03T12:27:19.375Z,1008.66
2022-12-03T12:28:19.362Z,1008.68
2022-12-03T12:29:19.345Z,1008.62
2022-12-03T12:30:19.348Z,1008.62
2022-12-03T12:31:19.355Z,1008.62
2022-12-03T12:32:19.315Z,1008.57
2022-12-03T12:33:19.299Z,1008.55
2022-12-03T12:34:19.289Z,1008.52
2022-12-03T12:35:19.312Z,1008.51
2022-12-03T12:36:19.276Z,1008.49
2022-12-03T12:37:19.265Z,1008.47
2022-12-03T12:38:19.247Z,1008.48
2022-12-03T12:39:19.241Z,1008.47
2022-12-03T12:40:19.251Z,1008.44
2022-12-03T12:41:19.249Z,1008.43
2022-12-03T12:42:19.225Z,1008.40
2022-12-03T12:43:23.774Z,1008.39
2022-12-03T12:44:19.201Z,1008.39
2022-12-03T12:45:19.182Z,1008.38
2022-12-03T12:46:46.615Z,1008.38
2022-12-03T12:47:19.298Z,1008.38
2022-12-03T12:48:19.153Z,1008.37
2022-12-03T12:49:19.127Z,1008.35
2022-12-03T12:50:19.138Z,1008.36
2022-12-03T12:51:19.112Z,1008.37
2022-12-03T12:52:19.180Z,1008.35
2022-12-03T12:53:19.092Z,1008.34
2022-12-03T12:54:19.103Z,1008.35
2022-12-03T12:55:19.074Z,1008.33
2022-12-03T12:56:19.073Z,1008.30
2022-12-03T12:57:19.075Z,1008.32
2022-12-03T12:58:19.054Z,1008.32
2022-12-03T12:59:19.041Z,1008.31
2022-12-03T13:00:19.045Z,1008.31
2022-12-03T13:01:19.068Z,1008.30
2022-12-03T13:02:19.091Z,1008.29
2022-12-03T13:03:19.003Z,1008.25
2022-12-03T13:04:19.017Z,1008.28
2022-12-03T13:05:18.988Z,1008.29
2022-12-03T13:06:18.979Z,1008.30
2022-12-03T13:07:18.951Z,1008.28
2022-12-03T13:08:19.043Z,1008.27
2022-12-03T13:09:18.951Z,1008.25
2022-12-03T13:10:18.918Z,1008.27
2022-12-03T13:11:18.970Z,1008.20
2022-12-03T13:12:18.911Z,1008.20
2022-12-03T13:13:19.558Z,1008.16
2022-12-03T13:14:18.901Z,1008.16
2022-12-03T13:15:18.872Z,1008.15
2022-12-03T13:16:18.964Z,1008.13
2022-12-03T13:17:18.847Z,1008.11
2022-12-03T13:18:18.862Z,1008.11
2022-12-03T13:19:18.829Z,1008.15
2022-12-03T13:20:18.843Z,1008.14
2022-12-03T13:21:18.806Z,1008.12
2022-12-03T13:22:18.817Z,1008.12
2022-12-03T13:23:18.796Z,1008.13
2022-12-03T13:24:18.815Z,1008.13
2022-12-03T13:25:38.003Z,1008.13
2022-12-03T13:26:32.852Z,1008.14
2022-12-03T13:27:18.771Z,1008.16
2022-12-03T13:28:18.758Z,1008.12
2022-12-03T13:29:18.768Z,1008.09
2022-12-03T13:30:18.787Z,1008.10
2022-12-03T13:31:18.737Z,1008.11
2022-12-03T13:32:18.714Z,1008.10
2022-12-03T13:33:18.738Z,1008.13
2022-12-03T13:34:18.719Z,1008.09
2022-12-03T13:35:18.665Z,1008.09
2022-12-03T13:36:18.679Z,1008.08
2022-12-03T13:37:18.673Z,1008.07
2022-12-03T13:38:18.680Z,1008.09
2022-12-03T13:39:18.652Z,1008.07
2022-12-03T13:40:18.642Z,1008.07
2022-12-03T13:41:18.627Z,1008.09
2022-12-03T13:42:18.616Z,1008.07
2022-12-03T13:43:18.610Z,1008.04
2022-12-03T13:44:18.614Z,1008.00
2022-12-03T13:45:18.563Z,1008.00
2022-12-03T13:46:18.663Z,1007.99
2022-12-03T13:47:18.577Z,1007.99
2022-12-03T13:48:18.576Z,1008.00
2022-12-03T13:49:18.562Z,1007.99
2022-12-03T13:50:18.549Z,1007.99
2022-12-03T13:51:18.535Z,1007.97
2022-12-03T13:52:18.537Z,1007.98
2022-12-03T13:53:18.500Z,1007.97
2022-12-03T13:54:18.523Z,1007.96
2022-12-03T13:55:18.545Z,1007.95
2022-12-03T13:56:18.487Z,1007.96
2022-12-03T13:57:18.457Z,1007.98
2022-12-03T13:58:18.445Z,1007.95
2022-12-03T13:59:22.915Z,1007.96
2022-12-03T14:00:18.476Z,1007.94
2022-12-03T14:01:18.465Z,1007.93
2022-12-03T14:02:18.492Z,1007.92
2022-12-03T14:03:18.437Z,1007.90
2022-12-03T14:04:18.394Z,1007.90
2022-12-03T14:05:18.402Z,1007.92
2022-12-03T14:06:18.370Z,1007.89
2022-12-03T14:07:18.361Z,1007.99
2022-12-03T14:08:18.390Z,1007.94
2022-12-03T14:09:18.329Z,1007.96
2022-12-03T14:10:18.344Z,1007.96
2022-12-03T14:11:18.311Z,1007.93
2022-12-03T14:12:18.313Z,1007.93
2022-12-03T14:13:18.295Z,1007.94
2022-12-03T14:14:18.328Z,1007.94
2022-12-03T14:15:18.278Z,1007.93
2022-12-03T14:16:18.310Z,1007.95
2022-12-03T14:17:18.275Z,1007.93
2022-12-03T14:18:18.258Z,1007.93
2022-12-03T14:19:18.251Z,1007.92
2022-12-03T14:20:18.219Z,1007.92
2022-12-03T14:21:18.206Z,1007.91
2022-12-03T14:22:18.200Z,1007.89
2022-12-03T14:23:18.203Z,1007.91
2022-12-03T14:24:18.207Z,1007.89
2022-12-03T14:25:18.159Z,1007.89
2022-12-03T14:26:18.176Z,1007.89
2022-12-03T14:27:18.179Z,1007.87
2022-12-03T14:28:18.139Z,1007.86
2022-12-03T14:29:18.137Z,1007.86
2022-12-03T14:30:18.129Z,1007.85
2022-12-03T14:31:18.149Z,1007.85
2022-12-03T14:32:18.217Z,1007.83
2022-12-03T14:33:18.087Z,1007.82
2022-12-03T14:34:18.133Z,1007.82
2022-12-03T14:35:18.061Z,1007.84
2022-12-03T14:36:18.072Z,1007.82
2022-12-03T14:37:18.045Z,1007.83
2022-12-03T14:38:18.031Z,1007.79
2022-12-03T14:39:18.036Z,1007.83
2022-12-03T14:40:21.469Z,1007.80
2022-12-03T14:41:18.009Z,1007.81
2022-12-03T14:42:17.980Z,1007.79
2022-12-03T14:43:17.982Z,1007.78
2022-12-03T14:44:17.960Z,1007.79
2022-12-03T14:45:17.974Z,1007.78
2022-12-03T14:46:18.215Z,1007.77
2022-12-03T14:47:17.962Z,1007.76
2022-12-03T14:48:17.930Z,1007.75
2022-12-03T14:49:17.929Z,1007.77
2022-12-03T14:50:17.901Z,1007.78
2022-12-03T14:51:17.915Z,1007.77
2022-12-03T14:52:17.907Z,1007.81
2022-12-03T14:53:20.518Z,1007.81
2022-12-03T14:54:17.859Z,1007.81
2022-12-03T14:55:17.873Z,1007.80
2022-12-03T14:56:17.852Z,1007.81
2022-12-03T14:57:17.847Z,1007.80
2022-12-03T14:58:17.843Z,1007.83
2022-12-03T14:59:20.651Z,1007.77
2022-12-03T15:00:17.802Z,1007.78
2022-12-03T15:01:17.971Z,1007.78
2022-12-03T15:02:17.872Z,1007.76